sensor_id;sensor_type;location;lat;lon;timestamp;temperature;humidity
27492;DHT22;14927;51.210;6.838;2023-05-24T00:02:21;16.50;44.10
27492;DHT22;14927;51.210;6.838;2023-05-24T00:05:10;16.50;44.30
27492;DHT22;14927;51.210;6.838;2023-05-24T00:07:54;16.40;44.40
27492;DHT22;14927;51.210;6.838;2023-05-24T00:10:39;16.40;44.50
27492;DHT22;14927;51.210;6.838;2023-05-24T00:13:23;16.30;44.60
27492;DHT22;14927;51.210;6.838;2023-05-24T00:16:08;16.60;44.90
27492;DHT22;14927;51.210;6.838;2023-05-24T00:18:53;16.30;45.40
27492;DHT22;14927;51.210;6.838;2023-05-24T00:21:37;16.20;44.90
27492;DHT22;14927;51.210;6.838;2023-05-24T00:24:22;16.20;45.10
27492;DHT22;14927;51.210;6.838;2023-05-24T00:27:07;16.20;45.20
27492;DHT22;14927;51.210;6.838;2023-05-24T00:29:52;16.10;45.40
27492;DHT22;14927;51.210;6.838;2023-05-24T00:32:36;16.10;45.50
27492;DHT22;14927;51.210;6.838;2023-05-24T00:35:21;16.00;45.60
27492;DHT22;14927;51.210;6.838;2023-05-24T00:38:05;16.00;45.70
27492;DHT22;14927;51.210;6.838;2023-05-24T00:40:50;16.00;45.80
27492;DHT22;14927;51.210;6.838;2023-05-24T00:43:35;15.90;45.90
27492;DHT22;14927;51.210;6.838;2023-05-24T00:46:21;16.20;46.20
27492;DHT22;14927;51.210;6.838;2023-05-24T00:49:08;15.80;46.20
27492;DHT22;14927;51.210;6.838;2023-05-24T00:51:53;15.70;46.30
27492;DHT22;14927;51.210;6.838;2023-05-24T00:54:38;15.70;46.50
27492;DHT22;14927;51.210;6.838;2023-05-24T00:57:23;15.70;46.70
27492;DHT22;14927;51.210;6.838;2023-05-24T01:00:08;15.60;46.80
27492;DHT22;14927;51.210;6.838;2023-05-24T01:02:54;15.50;46.90
27492;DHT22;14927;51.210;6.838;2023-05-24T01:05:38;15.50;47.10
27492;DHT22;14927;51.210;6.838;2023-05-24T01:14:48;15.30;48.10
27492;DHT22;14927;51.210;6.838;2023-05-24T01:18:06;15.30;48.20
27492;DHT22;14927;51.210;6.838;2023-05-24T07:00:18;15.90;54.00
27492;DHT22;14927;51.210;6.838;2023-05-24T07:03:03;16.00;54.10
27492;DHT22;14927;51.210;6.838;2023-05-24T07:05:48;16.00;53.90
27492;DHT22;14927;51.210;6.838;2023-05-24T07:08:32;16.10;53.60
27492;DHT22;14927;51.210;6.838;2023-05-24T07:11:17;16.10;53.50
27492;DHT22;14927;51.210;6.838;2023-05-24T07:14:02;16.20;53.50
27492;DHT22;14927;51.210;6.838;2023-05-24T07:16:46;16.20;53.40
27492;DHT22;14927;51.210;6.838;2023-05-24T07:19:31;16.30;53.50
27492;DHT22;14927;51.210;6.838;2023-05-24T07:22:17;16.30;53.40
27492;DHT22;14927;51.210;6.838;2023-05-24T07:25:02;16.40;53.10
27492;DHT22;14927;51.210;6.838;2023-05-24T07:27:47;16.40;52.80
27492;DHT22;14927;51.210;6.838;2023-05-24T07:30:32;16.50;52.80
27492;DHT22;14927;51.210;6.838;2023-05-24T07:33:17;16.60;52.60
27492;DHT22;14927;51.210;6.838;2023-05-24T07:36:02;16.70;52.30
27492;DHT22;14927;51.210;6.838;2023-05-24T07:38:48;16.80;52.10
27492;DHT22;14927;51.210;6.838;2023-05-24T07:41:32;16.90;52.10
27492;DHT22;14927;51.210;6.838;2023-05-24T07:44:17;16.90;52.00
27492;DHT22;14927;51.210;6.838;2023-05-24T07:47:02;17.00;51.80
27492;DHT22;14927;51.210;6.838;2023-05-24T07:49:47;17.10;51.50
27492;DHT22;14927;51.210;6.838;2023-05-24T07:52:31;17.10;51.20
27492;DHT22;14927;51.210;6.838;2023-05-24T07:55:16;17.20;50.90
27492;DHT22;14927;51.210;6.838;2023-05-24T07:58:01;17.20;50.50
27492;DHT22;14927;51.210;6.838;2023-05-24T08:00:45;17.30;50.40
27492;DHT22;14927;51.210;6.838;2023-05-24T08:03:30;17.70;50.50
27492;DHT22;14927;51.210;6.838;2023-05-24T08:06:15;17.50;50.40
27492;DHT22;14927;51.210;6.838;2023-05-24T08:09:01;17.50;50.20
27492;DHT22;14927;51.210;6.838;2023-05-24T08:11:47;17.50;49.70
27492;DHT22;14927;51.210;6.838;2023-05-24T08:14:32;17.70;49.50
27492;DHT22;14927;51.210;6.838;2023-05-24T08:17:17;17.70;49.40
27492;DHT22;14927;51.210;6.838;2023-05-24T08:20:02;17.70;49.10
27492;DHT22;14927;51.210;6.838;2023-05-24T08:22:51;17.70;49.00
27492;DHT22;14927;51.210;6.838;2023-05-24T08:25:36;17.80;49.50
27492;DHT22;14927;51.210;6.838;2023-05-24T08:28:22;17.80;49.30
27492;DHT22;14927;51.210;6.838;2023-05-24T08:31:07;17.90;49.10
27492;DHT22;14927;51.210;6.838;2023-05-24T08:33:51;17.90;48.90
27492;DHT22;14927;51.210;6.838;2023-05-24T08:36:36;17.90;48.50
27492;DHT22;14927;51.210;6.838;2023-05-24T08:39:22;17.90;48.10
27492;DHT22;14927;51.210;6.838;2023-05-24T08:42:06;18.00;47.90
27492;DHT22;14927;51.210;6.838;2023-05-24T08:45:03;18.00;47.80
27492;DHT22;14927;51.210;6.838;2023-05-24T08:47:53;18.10;47.40
27492;DHT22;14927;51.210;6.838;2023-05-24T08:50:38;18.20;47.50
27492;DHT22;14927;51.210;6.838;2023-05-24T08:53:23;18.20;47.30
27492;DHT22;14927;51.210;6.838;2023-05-24T08:56:08;18.30;47.40
27492;DHT22;14927;51.210;6.838;2023-05-24T08:58:54;18.30;47.20
27492;DHT22;14927;51.210;6.838;2023-05-24T09:01:39;18.50;47.00
27492;DHT22;14927;51.210;6.838;2023-05-24T09:04:26;18.40;46.90
27492;DHT22;14927;51.210;6.838;2023-05-24T09:07:13;18.50;46.70
27492;DHT22;14927;51.210;6.838;2023-05-24T09:10:03;18.50;46.50
27492;DHT22;14927;51.210;6.838;2023-05-24T09:12:55;18.60;46.20
27492;DHT22;14927;51.210;6.838;2023-05-24T09:15:41;18.70;46.00
27492;DHT22;14927;51.210;6.838;2023-05-24T09:18:26;18.70;46.00
27492;DHT22;14927;51.210;6.838;2023-05-24T09:21:10;18.80;45.80
27492;DHT22;14927;51.210;6.838;2023-05-24T09:23:55;18.80;45.50
27492;DHT22;14927;51.210;6.838;2023-05-24T09:26:40;19.10;45.00
27492;DHT22;14927;51.210;6.838;2023-05-24T09:29:25;18.90;44.70
27492;DHT22;14927;51.210;6.838;2023-05-24T09:32:13;18.90;44.50
27492;DHT22;14927;51.210;6.838;2023-05-24T09:34:58;19.00;44.40
27492;DHT22;14927;51.210;6.838;2023-05-24T09:37:45;19.00;44.80
27492;DHT22;14927;51.210;6.838;2023-05-24T09:40:30;19.00;44.70
27492;DHT22;14927;51.210;6.838;2023-05-24T09:43:15;19.10;44.40
27492;DHT22;14927;51.210;6.838;2023-05-24T09:46:03;19.10;44.30
27492;DHT22;14927;51.210;6.838;2023-05-24T09:49:05;19.20;44.10
27492;DHT22;14927;51.210;6.838;2023-05-24T09:51:51;19.20;43.20
27492;DHT22;14927;51.210;6.838;2023-05-24T09:54:35;19.30;43.60
27492;DHT22;14927;51.210;6.838;2023-05-24T09:57:20;19.30;43.70
27492;DHT22;14927;51.210;6.838;2023-05-24T10:00:07;19.30;43.40
27492;DHT22;14927;51.210;6.838;2023-05-24T10:03:02;19.30;43.20
27492;DHT22;14927;51.210;6.838;2023-05-24T10:05:47;19.40;43.30
27492;DHT22;14927;51.210;6.838;2023-05-24T10:08:34;19.60;43.90
27492;DHT22;14927;51.210;6.838;2023-05-24T10:11:19;19.50;43.40
27492;DHT22;14927;51.210;6.838;2023-05-24T10:14:08;19.50;43.00
27492;DHT22;14927;51.210;6.838;2023-05-24T10:16:52;19.80;42.90
27492;DHT22;14927;51.210;6.838;2023-05-24T10:19:37;19.70;42.40
27492;DHT22;14927;51.210;6.838;2023-05-24T10:22:23;19.80;42.20
27492;DHT22;14927;51.210;6.838;2023-05-24T10:25:11;19.80;41.70
27492;DHT22;14927;51.210;6.838;2023-05-24T10:28:00;19.80;41.40
27492;DHT22;14927;51.210;6.838;2023-05-24T10:33:55;19.90;41.50
27492;DHT22;14927;51.210;6.838;2023-05-24T10:36:43;19.90;41.20
27492;DHT22;14927;51.210;6.838;2023-05-24T10:39:28;19.90;41.20
27492;DHT22;14927;51.210;6.838;2023-05-24T10:42:12;20.20;41.50
27492;DHT22;14927;51.210;6.838;2023-05-24T10:44:57;20.00;41.40
27492;DHT22;14927;51.210;6.838;2023-05-24T10:47:42;20.00;41.60
27492;DHT22;14927;51.210;6.838;2023-05-24T10:50:27;20.00;41.60
27492;DHT22;14927;51.210;6.838;2023-05-24T10:53:13;20.20;41.50
27492;DHT22;14927;51.210;6.838;2023-05-24T10:56:00;20.20;40.90
27492;DHT22;14927;51.210;6.838;2023-05-24T11:01:42;20.40;40.50
27492;DHT22;14927;51.210;6.838;2023-05-24T11:04:48;20.50;40.60
27492;DHT22;14927;51.210;6.838;2023-05-24T11:07:40;20.50;40.10
27492;DHT22;14927;51.210;6.838;2023-05-24T11:10:30;20.50;40.10
27492;DHT22;14927;51.210;6.838;2023-05-24T11:13:17;20.60;40.00
27492;DHT22;14927;51.210;6.838;2023-05-24T11:16:05;20.60;40.00
27492;DHT22;14927;51.210;6.838;2023-05-24T11:18:56;20.50;40.00
27492;DHT22;14927;51.210;6.838;2023-05-24T11:21:43;20.60;39.60
27492;DHT22;14927;51.210;6.838;2023-05-24T11:24:29;20.60;39.60
27492;DHT22;14927;51.210;6.838;2023-05-24T11:27:14;20.60;39.60
27492;DHT22;14927;51.210;6.838;2023-05-24T11:29:59;20.50;39.60
27492;DHT22;14927;51.210;6.838;2023-05-24T11:32:48;20.50;39.40
27492;DHT22;14927;51.210;6.838;2023-05-24T11:35:33;20.50;39.20
27492;DHT22;14927;51.210;6.838;2023-05-24T11:38:18;20.50;39.50
27492;DHT22;14927;51.210;6.838;2023-05-24T11:41:04;20.50;39.50
27492;DHT22;14927;51.210;6.838;2023-05-24T11:43:50;20.40;39.40
27492;DHT22;14927;51.210;6.838;2023-05-24T11:46:35;20.40;39.60
27492;DHT22;14927;51.210;6.838;2023-05-24T11:49:21;20.40;39.60
27492;DHT22;14927;51.210;6.838;2023-05-24T11:52:06;20.40;39.40
27492;DHT22;14927;51.210;6.838;2023-05-24T11:54:51;20.30;39.40
27492;DHT22;14927;51.210;6.838;2023-05-24T11:57:40;20.30;39.40
27492;DHT22;14927;51.210;6.838;2023-05-24T12:00:27;20.30;39.10
27492;DHT22;14927;51.210;6.838;2023-05-24T12:03:11;20.30;39.30
27492;DHT22;14927;51.210;6.838;2023-05-24T12:05:56;20.30;39.30
27492;DHT22;14927;51.210;6.838;2023-05-24T12:08:40;20.30;39.30
27492;DHT22;14927;51.210;6.838;2023-05-24T12:11:26;20.40;39.70
27492;DHT22;14927;51.210;6.838;2023-05-24T12:14:16;20.40;40.40
27492;DHT22;14927;51.210;6.838;2023-05-24T12:17:01;20.40;39.80
27492;DHT22;14927;51.210;6.838;2023-05-24T12:19:48;20.40;39.80
27492;DHT22;14927;51.210;6.838;2023-05-24T12:22:34;20.50;39.40
27492;DHT22;14927;51.210;6.838;2023-05-24T12:25:20;20.50;39.60
27492;DHT22;14927;51.210;6.838;2023-05-24T12:28:05;20.60;39.60
27492;DHT22;14927;51.210;6.838;2023-05-24T12:30:50;20.60;39.60
27492;DHT22;14927;51.210;6.838;2023-05-24T12:33:36;20.70;39.70
27492;DHT22;14927;51.210;6.838;2023-05-24T12:36:21;20.80;40.10
27492;DHT22;14927;51.210;6.838;2023-05-24T12:39:20;20.80;40.30
27492;DHT22;14927;51.210;6.838;2023-05-24T12:42:14;20.90;39.20
27492;DHT22;14927;51.210;6.838;2023-05-24T12:44:59;21.00;40.50
27492;DHT22;14927;51.210;6.838;2023-05-24T12:47:44;21.00;40.20
27492;DHT22;14927;51.210;6.838;2023-05-24T12:50:28;21.10;39.90
27492;DHT22;14927;51.210;6.838;2023-05-24T12:53:13;21.20;39.60
27492;DHT22;14927;51.210;6.838;2023-05-24T12:55:58;21.40;39.40
27492;DHT22;14927;51.210;6.838;2023-05-24T12:58:43;21.50;39.30
27492;DHT22;14927;51.210;6.838;2023-05-24T13:01:28;21.60;38.60
27492;DHT22;14927;51.210;6.838;2023-05-24T13:04:13;21.70;38.20
27492;DHT22;14927;51.210;6.838;2023-05-24T13:06:58;21.80;38.00
27492;DHT22;14927;51.210;6.838;2023-05-24T13:09:43;21.90;38.10
27492;DHT22;14927;51.210;6.838;2023-05-24T13:12:28;22.00;38.00
27492;DHT22;14927;51.210;6.838;2023-05-24T13:15:12;22.10;37.60
27492;DHT22;14927;51.210;6.838;2023-05-24T13:17:57;22.20;37.20
27492;DHT22;14927;51.210;6.838;2023-05-24T13:20:42;22.20;36.90
27492;DHT22;14927;51.210;6.838;2023-05-24T13:23:26;22.30;36.80
27492;DHT22;14927;51.210;6.838;2023-05-24T13:26:11;22.30;37.10
27492;DHT22;14927;51.210;6.838;2023-05-24T13:28:55;22.40;37.10
27492;DHT22;14927;51.210;6.838;2023-05-24T13:31:40;22.40;36.80
27492;DHT22;14927;51.210;6.838;2023-05-24T13:34:25;22.40;36.70
27492;DHT22;14927;51.210;6.838;2023-05-24T13:37:10;22.50;36.90
27492;DHT22;14927;51.210;6.838;2023-05-24T13:39:54;22.40;36.60
27492;DHT22;14927;51.210;6.838;2023-05-24T13:42:39;22.40;36.80
27492;DHT22;14927;51.210;6.838;2023-05-24T13:45:24;22.40;36.90
27492;DHT22;14927;51.210;6.838;2023-05-24T13:48:08;22.50;37.00
27492;DHT22;14927;51.210;6.838;2023-05-24T13:50:53;22.40;36.90
27492;DHT22;14927;51.210;6.838;2023-05-24T13:53:38;22.30;36.90
27492;DHT22;14927;51.210;6.838;2023-05-24T13:56:23;22.30;36.90
27492;DHT22;14927;51.210;6.838;2023-05-24T13:59:10;22.30;37.20
27492;DHT22;14927;51.210;6.838;2023-05-24T14:01:57;22.30;37.30
27492;DHT22;14927;51.210;6.838;2023-05-24T14:04:42;22.30;37.30
27492;DHT22;14927;51.210;6.838;2023-05-24T14:07:26;22.20;37.20
27492;DHT22;14927;51.210;6.838;2023-05-24T14:10:11;22.30;37.50
27492;DHT22;14927;51.210;6.838;2023-05-24T14:12:55;22.20;37.50
27492;DHT22;14927;51.210;6.838;2023-05-24T14:15:41;22.20;37.70
27492;DHT22;14927;51.210;6.838;2023-05-24T14:18:25;22.10;37.80
27492;DHT22;14927;51.210;6.838;2023-05-24T14:21:10;22.10;37.60
27492;DHT22;14927;51.210;6.838;2023-05-24T14:23:54;22.20;37.50
27492;DHT22;14927;51.210;6.838;2023-05-24T14:26:41;22.20;37.70
27492;DHT22;14927;51.210;6.838;2023-05-24T14:29:25;22.10;37.60
27492;DHT22;14927;51.210;6.838;2023-05-24T14:32:10;22.10;37.80
27492;DHT22;14927;51.210;6.838;2023-05-24T14:34:54;22.20;37.70
27492;DHT22;14927;51.210;6.838;2023-05-24T14:37:39;22.20;37.50
27492;DHT22;14927;51.210;6.838;2023-05-24T14:40:24;22.20;37.40
27492;DHT22;14927;51.210;6.838;2023-05-24T14:43:08;22.20;37.50
27492;DHT22;14927;51.210;6.838;2023-05-24T14:45:53;22.20;37.70
27492;DHT22;14927;51.210;6.838;2023-05-24T14:48:37;22.20;37.50
27492;DHT22;14927;51.210;6.838;2023-05-24T14:51:24;22.20;37.40
27492;DHT22;14927;51.210;6.838;2023-05-24T14:54:10;22.20;37.30
27492;DHT22;14927;51.210;6.838;2023-05-24T14:56:54;22.50;38.10
27492;DHT22;14927;51.210;6.838;2023-05-24T14:59:39;22.20;37.20
27492;DHT22;14927;51.210;6.838;2023-05-24T15:02:23;22.20;36.90
27492;DHT22;14927;51.210;6.838;2023-05-24T15:05:09;22.20;36.90
27492;DHT22;14927;51.210;6.838;2023-05-24T15:07:53;22.20;36.90
27492;DHT22;14927;51.210;6.838;2023-05-24T15:10:38;22.20;37.00
27492;DHT22;14927;51.210;6.838;2023-05-24T15:13:22;22.20;37.20
27492;DHT22;14927;51.210;6.838;2023-05-24T15:16:08;22.20;37.20
27492;DHT22;14927;51.210;6.838;2023-05-24T15:18:53;22.20;37.30
27492;DHT22;14927;51.210;6.838;2023-05-24T15:21:37;22.20;37.40
27492;DHT22;14927;51.210;6.838;2023-05-24T15:24:22;22.20;37.40
27492;DHT22;14927;51.210;6.838;2023-05-24T15:27:07;22.20;37.40
27492;DHT22;14927;51.210;6.838;2023-05-24T15:29:52;22.20;37.30
27492;DHT22;14927;51.210;6.838;2023-05-24T15:32:42;22.10;37.50
27492;DHT22;14927;51.210;6.838;2023-05-24T15:35:26;22.10;37.60
27492;DHT22;14927;51.210;6.838;2023-05-24T15:38:11;22.10;37.60
27492;DHT22;14927;51.210;6.838;2023-05-24T15:40:55;22.10;37.50
27492;DHT22;14927;51.210;6.838;2023-05-24T15:43:40;22.10;37.70
27492;DHT22;14927;51.210;6.838;2023-05-24T15:46:25;22.10;37.90
27492;DHT22;14927;51.210;6.838;2023-05-24T15:49:10;22.00;37.90
27492;DHT22;14927;51.210;6.838;2023-05-24T15:51:54;22.00;38.00
27492;DHT22;14927;51.210;6.838;2023-05-24T15:54:39;22.00;38.10
27492;DHT22;14927;51.210;6.838;2023-05-24T15:57:24;22.00;38.00
27492;DHT22;14927;51.210;6.838;2023-05-24T16:00:09;21.90;38.10
27492;DHT22;14927;51.210;6.838;2023-05-24T16:02:54;21.90;38.20
27492;DHT22;14927;51.210;6.838;2023-05-24T16:05:40;21.90;38.40
27492;DHT22;14927;51.210;6.838;2023-05-24T16:08:24;21.80;38.50
27492;DHT22;14927;51.210;6.838;2023-05-24T16:11:10;21.80;38.70
27492;DHT22;14927;51.210;6.838;2023-05-24T16:13:56;21.70;38.90
27492;DHT22;14927;51.210;6.838;2023-05-24T16:16:45;21.70;38.90
27492;DHT22;14927;51.210;6.838;2023-05-24T16:19:29;21.70;39.00
27492;DHT22;14927;51.210;6.838;2023-05-24T16:22:14;21.70;39.10
27492;DHT22;14927;51.210;6.838;2023-05-24T16:24:59;21.80;39.10
27492;DHT22;14927;51.210;6.838;2023-05-24T16:27:44;21.70;39.10
27492;DHT22;14927;51.210;6.838;2023-05-24T16:30:28;21.70;39.30
27492;DHT22;14927;51.210;6.838;2023-05-24T16:33:13;21.70;39.30
27492;DHT22;14927;51.210;6.838;2023-05-24T16:35:57;21.70;39.10
27492;DHT22;14927;51.210;6.838;2023-05-24T16:38:44;21.70;38.90
27492;DHT22;14927;51.210;6.838;2023-05-24T16:41:29;21.70;39.10
27492;DHT22;14927;51.210;6.838;2023-05-24T16:44:20;21.70;39.30
27492;DHT22;14927;51.210;6.838;2023-05-24T16:47:05;21.70;39.40
27492;DHT22;14927;51.210;6.838;2023-05-24T16:49:50;21.70;39.30
27492;DHT22;14927;51.210;6.838;2023-05-24T16:52:34;21.60;39.20
27492;DHT22;14927;51.210;6.838;2023-05-24T16:55:19;21.60;39.70
27492;DHT22;14927;51.210;6.838;2023-05-24T16:58:04;21.60;39.90
27492;DHT22;14927;51.210;6.838;2023-05-24T17:00:48;21.60;39.90
27492;DHT22;14927;51.210;6.838;2023-05-24T17:03:33;21.80;40.00
27492;DHT22;14927;51.210;6.838;2023-05-24T17:06:18;21.80;39.90
27492;DHT22;14927;51.210;6.838;2023-05-24T17:09:03;21.80;39.40
27492;DHT22;14927;51.210;6.838;2023-05-24T17:11:47;21.90;39.30
27492;DHT22;14927;51.210;6.838;2023-05-24T17:14:32;21.90;39.20
27492;DHT22;14927;51.210;6.838;2023-05-24T17:17:16;21.90;39.00
27492;DHT22;14927;51.210;6.838;2023-05-24T17:20:01;21.90;38.90
27492;DHT22;14927;51.210;6.838;2023-05-24T17:22:45;21.90;39.10
27492;DHT22;14927;51.210;6.838;2023-05-24T17:25:32;21.90;39.20
27492;DHT22;14927;51.210;6.838;2023-05-24T17:28:17;21.90;39.80
27492;DHT22;14927;51.210;6.838;2023-05-24T17:31:02;21.90;39.20
27492;DHT22;14927;51.210;6.838;2023-05-24T17:33:46;21.80;39.50
27492;DHT22;14927;51.210;6.838;2023-05-24T17:36:31;21.80;39.40
27492;DHT22;14927;51.210;6.838;2023-05-24T17:39:16;21.80;39.30
27492;DHT22;14927;51.210;6.838;2023-05-24T17:42:03;21.70;39.30
27492;DHT22;14927;51.210;6.838;2023-05-24T17:44:48;21.70;39.30
27492;DHT22;14927;51.210;6.838;2023-05-24T17:47:32;21.80;39.60
27492;DHT22;14927;51.210;6.838;2023-05-24T17:50:17;21.70;39.70
27492;DHT22;14927;51.210;6.838;2023-05-24T17:53:02;21.60;39.60
27492;DHT22;14927;51.210;6.838;2023-05-24T17:55:46;21.70;39.80
27492;DHT22;14927;51.210;6.838;2023-05-24T17:58:31;21.60;39.90
27492;DHT22;14927;51.210;6.838;2023-05-24T18:01:18;21.60;39.80
27492;DHT22;14927;51.210;6.838;2023-05-24T18:04:03;21.50;39.80
27492;DHT22;14927;51.210;6.838;2023-05-24T18:06:47;21.50;39.90
27492;DHT22;14927;51.210;6.838;2023-05-24T18:09:31;21.50;39.90
27492;DHT22;14927;51.210;6.838;2023-05-24T18:12:16;21.40;39.80
27492;DHT22;14927;51.210;6.838;2023-05-24T18:15:01;21.40;40.10
27492;DHT22;14927;51.210;6.838;2023-05-24T18:17:46;21.30;40.30
27492;DHT22;14927;51.210;6.838;2023-05-24T18:20:30;21.30;40.60
27492;DHT22;14927;51.210;6.838;2023-05-24T18:23:15;21.20;40.90
27492;DHT22;14927;51.210;6.838;2023-05-24T18:26:00;21.20;40.70
27492;DHT22;14927;51.210;6.838;2023-05-24T18:28:44;21.10;40.90
27492;DHT22;14927;51.210;6.838;2023-05-24T18:31:29;21.10;41.10
27492;DHT22;14927;51.210;6.838;2023-05-24T18:34:13;21.00;41.20
27492;DHT22;14927;51.210;6.838;2023-05-24T18:36:58;21.00;41.30
27492;DHT22;14927;51.210;6.838;2023-05-24T18:39:42;21.00;41.60
27492;DHT22;14927;51.210;6.838;2023-05-24T18:42:27;20.90;41.60
27492;DHT22;14927;51.210;6.838;2023-05-24T18:45:12;20.90;42.50
27492;DHT22;14927;51.210;6.838;2023-05-24T18:47:56;20.80;42.00
27492;DHT22;14927;51.210;6.838;2023-05-24T18:50:41;20.80;42.10
27492;DHT22;14927;51.210;6.838;2023-05-24T18:53:26;20.80;42.40
27492;DHT22;14927;51.210;6.838;2023-05-24T18:56:10;20.70;42.40
27492;DHT22;14927;51.210;6.838;2023-05-24T18:58:55;20.60;42.60
27492;DHT22;14927;51.210;6.838;2023-05-24T19:01:41;20.60;42.60
27492;DHT22;14927;51.210;6.838;2023-05-24T19:04:27;20.50;43.00
27492;DHT22;14927;51.210;6.838;2023-05-24T19:07:13;20.50;43.00
27492;DHT22;14927;51.210;6.838;2023-05-24T19:10:00;20.40;43.00
27492;DHT22;14927;51.210;6.838;2023-05-24T19:12:46;20.40;43.50
27492;DHT22;14927;51.210;6.838;2023-05-24T19:15:30;20.30;43.80
27492;DHT22;14927;51.210;6.838;2023-05-24T19:18:15;20.30;43.80
27492;DHT22;14927;51.210;6.838;2023-05-24T19:20:59;20.20;44.10
27492;DHT22;14927;51.210;6.838;2023-05-24T19:23:44;20.20;44.50
27492;DHT22;14927;51.210;6.838;2023-05-24T19:26:31;20.20;44.50
27492;DHT22;14927;51.210;6.838;2023-05-24T19:29:28;20.10;45.00
27492;DHT22;14927;51.210;6.838;2023-05-24T19:32:20;20.10;45.10
27492;DHT22;14927;51.210;6.838;2023-05-24T19:35:06;20.00;45.30
27492;DHT22;14927;51.210;6.838;2023-05-24T19:37:51;20.10;45.40
27492;DHT22;14927;51.210;6.838;2023-05-24T19:40:36;20.00;45.50
27492;DHT22;14927;51.210;6.838;2023-05-24T19:43:21;19.90;45.70
27492;DHT22;14927;51.210;6.838;2023-05-24T19:46:05;19.80;45.70
27492;DHT22;14927;51.210;6.838;2023-05-24T19:48:50;19.80;46.00
27492;DHT22;14927;51.210;6.838;2023-05-24T19:51:35;19.80;46.20
27492;DHT22;14927;51.210;6.838;2023-05-24T19:54:21;19.70;46.20
27492;DHT22;14927;51.210;6.838;2023-05-24T19:57:06;19.70;46.30
27492;DHT22;14927;51.210;6.838;2023-05-24T19:59:52;19.60;46.40
27492;DHT22;14927;51.210;6.838;2023-05-24T20:02:36;19.60;46.70
27492;DHT22;14927;51.210;6.838;2023-05-24T20:05:21;19.60;47.00
27492;DHT22;14927;51.210;6.838;2023-05-24T20:08:05;19.50;47.20
27492;DHT22;14927;51.210;6.838;2023-05-24T20:10:50;19.40;47.40
27492;DHT22;14927;51.210;6.838;2023-05-24T20:13:35;19.30;47.60
27492;DHT22;14927;51.210;6.838;2023-05-24T20:16:20;19.30;47.80
27492;DHT22;14927;51.210;6.838;2023-05-24T20:19:05;19.20;48.00
27492;DHT22;14927;51.210;6.838;2023-05-24T20:21:50;19.20;48.20
27492;DHT22;14927;51.210;6.838;2023-05-24T20:24:35;19.10;48.40
27492;DHT22;14927;51.210;6.838;2023-05-24T20:27:19;19.00;48.60
27492;DHT22;14927;51.210;6.838;2023-05-24T20:30:05;19.00;48.80
27492;DHT22;14927;51.210;6.838;2023-05-24T20:32:50;18.80;48.90
27492;DHT22;14927;51.210;6.838;2023-05-24T20:35:35;18.80;49.20
27492;DHT22;14927;51.210;6.838;2023-05-24T20:38:21;18.70;49.10
27492;DHT22;14927;51.210;6.838;2023-05-24T20:41:06;18.60;49.50
27492;DHT22;14927;51.210;6.838;2023-05-24T20:43:51;18.60;49.80
27492;DHT22;14927;51.210;6.838;2023-05-24T20:46:35;18.60;49.90
27492;DHT22;14927;51.210;6.838;2023-05-24T20:49:20;18.50;49.90
27492;DHT22;14927;51.210;6.838;2023-05-24T20:52:05;18.40;50.10
27492;DHT22;14927;51.210;6.838;2023-05-24T20:54:50;18.30;50.30
27492;DHT22;14927;51.210;6.838;2023-05-24T20:57:34;18.20;50.50
27492;DHT22;14927;51.210;6.838;2023-05-24T21:00:19;18.20;50.70
27492;DHT22;14927;51.210;6.838;2023-05-24T21:03:04;18.10;50.90
27492;DHT22;14927;51.210;6.838;2023-05-24T21:05:49;18.10;51.10
27492;DHT22;14927;51.210;6.838;2023-05-24T21:08:34;18.00;51.20
27492;DHT22;14927;51.210;6.838;2023-05-24T21:11:18;18.00;51.40
27492;DHT22;14927;51.210;6.838;2023-05-24T21:14:03;17.90;51.50
27492;DHT22;14927;51.210;6.838;2023-05-24T21:16:47;17.80;51.60
27492;DHT22;14927;51.210;6.838;2023-05-24T21:19:32;17.80;51.80
27492;DHT22;14927;51.210;6.838;2023-05-24T21:22:16;17.70;52.00
27492;DHT22;14927;51.210;6.838;2023-05-24T21:25:02;17.70;52.20
27492;DHT22;14927;51.210;6.838;2023-05-24T21:27:47;17.60;52.20
27492;DHT22;14927;51.210;6.838;2023-05-24T21:30:31;17.60;52.40
27492;DHT22;14927;51.210;6.838;2023-05-24T21:33:27;17.50;52.50
27492;DHT22;14927;51.210;6.838;2023-05-24T21:36:11;17.40;52.80
27492;DHT22;14927;51.210;6.838;2023-05-24T21:38:56;17.30;52.80
27492;DHT22;14927;51.210;6.838;2023-05-24T21:41:41;17.30;52.90
27492;DHT22;14927;51.210;6.838;2023-05-24T21:44:26;17.20;53.10
27492;DHT22;14927;51.210;6.838;2023-05-24T21:47:10;17.20;53.30
27492;DHT22;14927;51.210;6.838;2023-05-24T21:49:55;17.30;53.50
27492;DHT22;14927;51.210;6.838;2023-05-24T21:52:39;17.20;53.50
27492;DHT22;14927;51.210;6.838;2023-05-24T21:55:24;17.20;53.70
27492;DHT22;14927;51.210;6.838;2023-05-24T21:58:08;17.30;53.90
27492;DHT22;14927;51.210;6.838;2023-05-24T22:00:53;16.90;53.90
27492;DHT22;14927;51.210;6.838;2023-05-24T22:03:38;16.90;54.10
27492;DHT22;14927;51.210;6.838;2023-05-24T22:06:22;16.80;54.30
27492;DHT22;14927;51.210;6.838;2023-05-24T22:09:11;16.80;54.30
27492;DHT22;14927;51.210;6.838;2023-05-24T22:11:56;16.70;54.40
27492;DHT22;14927;51.210;6.838;2023-05-24T22:14:41;16.90;54.40
27492;DHT22;14927;51.210;6.838;2023-05-24T22:17:26;16.70;54.50
27492;DHT22;14927;51.210;6.838;2023-05-24T22:20:12;16.60;54.60
27492;DHT22;14927;51.210;6.838;2023-05-24T22:22:56;16.60;54.70
27492;DHT22;14927;51.210;6.838;2023-05-24T22:25:42;16.50;54.70
27492;DHT22;14927;51.210;6.838;2023-05-24T22:28:30;16.50;54.90
27492;DHT22;14927;51.210;6.838;2023-05-24T22:31:17;16.40;54.90
27492;DHT22;14927;51.210;6.838;2023-05-24T22:34:02;16.40;55.00
27492;DHT22;14927;51.210;6.838;2023-05-24T22:36:47;16.40;55.10
27492;DHT22;14927;51.210;6.838;2023-05-24T22:39:32;16.30;55.20
27492;DHT22;14927;51.210;6.838;2023-05-24T22:42:17;16.30;55.40
27492;DHT22;14927;51.210;6.838;2023-05-24T22:45:02;16.30;55.40
27492;DHT22;14927;51.210;6.838;2023-05-24T22:47:47;16.20;55.30
27492;DHT22;14927;51.210;6.838;2023-05-24T22:50:34;16.20;55.40
27492;DHT22;14927;51.210;6.838;2023-05-24T22:53:19;16.20;55.50
27492;DHT22;14927;51.210;6.838;2023-05-24T22:56:03;16.20;55.60
27492;DHT22;14927;51.210;6.838;2023-05-24T22:58:49;16.10;55.80
27492;DHT22;14927;51.210;6.838;2023-05-24T23:01:36;16.10;55.90
27492;DHT22;14927;51.210;6.838;2023-05-24T23:04:20;16.10;56.00
27492;DHT22;14927;51.210;6.838;2023-05-24T23:07:05;16.10;56.10
27492;DHT22;14927;51.210;6.838;2023-05-24T23:09:49;16.10;56.10
27492;DHT22;14927;51.210;6.838;2023-05-24T23:12:34;16.00;56.10
27492;DHT22;14927;51.210;6.838;2023-05-24T23:15:18;16.00;56.10
27492;DHT22;14927;51.210;6.838;2023-05-24T23:18:03;16.00;56.00